createdAt,value
2017-10-01T00:00:16.208Z,13.33
2017-10-01T00:02:43.690Z,12.18
2017-10-01T00:05:11.156Z,12.98
2017-10-01T00:07:38.644Z,12.50
2017-10-01T00:10:06.118Z,12.65
2017-10-01T00:12:33.588Z,14.45
2017-10-01T00:15:01.035Z,13.62
2017-10-01T00:17:28.542Z,14.60
2017-10-01T00:19:55.994Z,13.07
2017-10-01T00:22:23.460Z,15.98
2017-10-01T00:24:51.715Z,13.32
2017-10-01T00:27:19.888Z,11.57
2017-10-01T00:29:47.375Z,16.00
2017-10-01T00:32:14.918Z,12.90
2017-10-01T00:34:43.120Z,15.48
2017-10-01T00:37:10.612Z,12.77
2017-10-01T00:39:38.060Z,12.88
2017-10-01T00:42:05.532Z,13.02
2017-10-01T00:44:33.070Z,16.55
2017-10-01T00:47:00.524Z,15.50
2017-10-01T00:49:28.025Z,15.90
2017-10-01T00:51:56.263Z,16.42
2017-10-01T00:54:23.723Z,14.63
2017-10-01T00:56:51.941Z,15.30
2017-10-01T00:59:19.417Z,16.27
2017-10-01T01:01:47.459Z,17.02
2017-10-01T01:04:15.694Z,14.68
2017-10-01T01:06:43.196Z,18.85
2017-10-01T01:09:10.657Z,13.07
2017-10-01T01:11:38.140Z,15.65
2017-10-01T01:14:05.741Z,15.80
2017-10-01T01:16:33.209Z,14.87
2017-10-01T01:19:00.702Z,16.83
2017-10-01T01:21:28.172Z,13.07
2017-10-01T01:23:56.424Z,15.90
2017-10-01T01:26:24.653Z,13.00
2017-10-01T01:28:52.112Z,17.10
2017-10-01T01:31:21.106Z,14.15
2017-10-01T01:33:48.567Z,11.75
2017-10-01T01:36:16.796Z,12.37
2017-10-01T01:38:44.264Z,11.12
2017-10-01T01:41:11.746Z,10.50
2017-10-01T01:43:39.189Z,12.50
2017-10-01T01:46:06.653Z,16.00
2017-10-01T01:48:34.112Z,11.05
2017-10-01T01:51:01.569Z,15.18
2017-10-01T01:53:29.788Z,13.30
2017-10-01T01:55:57.257Z,12.63
2017-10-01T01:58:25.111Z,15.52
2017-10-01T02:00:53.329Z,14.45
2017-10-01T02:03:20.786Z,13.60
2017-10-01T02:05:49.003Z,16.98
2017-10-01T02:08:16.473Z,16.70
2017-10-01T02:10:43.913Z,14.63
2017-10-01T02:13:12.243Z,14.38
2017-10-01T02:15:40.492Z,13.57
2017-10-01T02:18:07.943Z,15.35
2017-10-01T02:20:35.417Z,17.62
2017-10-01T02:23:03.655Z,14.73
2017-10-01T02:25:31.892Z,16.52
2017-10-01T02:27:59.344Z,14.75
2017-10-01T02:30:26.808Z,13.45
2017-10-01T02:32:54.291Z,13.38
2017-10-01T02:35:21.754Z,14.07
2017-10-01T02:37:49.223Z,12.70
2017-10-01T02:40:17.435Z,12.18
2017-10-01T02:42:44.925Z,15.93
2017-10-01T02:45:12.393Z,17.35
2017-10-01T02:47:39.886Z,13.23
2017-10-01T02:50:07.333Z,16.42
2017-10-01T02:52:34.805Z,17.48
2017-10-01T02:55:02.252Z,16.23
2017-10-01T02:57:30.500Z,14.10
2017-10-01T02:59:57.952Z,13.15
2017-10-01T03:02:25.431Z,17.70
2017-10-01T03:04:52.882Z,12.37
2017-10-01T03:07:21.117Z,13.80
2017-10-01T03:09:48.584Z,13.25
2017-10-01T03:12:16.052Z,14.38
2017-10-01T03:14:44.246Z,16.40
2017-10-01T03:17:11.708Z,12.88
2017-10-01T03:19:39.326Z,13.43
2017-10-01T03:22:06.772Z,14.73
2017-10-01T03:24:34.239Z,13.23
2017-10-01T03:27:01.703Z,13.38
2017-10-01T03:29:29.168Z,15.52
2017-10-01T03:31:57.411Z,15.98
2017-10-01T03:34:25.632Z,14.15
2017-10-01T03:36:53.843Z,13.07
2017-10-01T03:39:22.107Z,13.18
2017-10-01T03:41:49.546Z,14.68
2017-10-01T03:44:17.023Z,14.87
2017-10-01T03:46:44.475Z,13.77
2017-10-01T03:49:11.943Z,17.67
2017-10-01T03:51:39.387Z,12.35
2017-10-01T03:54:07.628Z,16.15
2017-10-01T03:56:35.124Z,18.52
2017-10-01T03:59:02.585Z,17.45
2017-10-01T04:01:30.028Z,16.17
2017-10-01T04:03:57.510Z,17.20
2017-10-01T04:06:24.979Z,12.63
2017-10-01T04:08:52.458Z,15.00
2017-10-01T04:11:19.925Z,14.90
2017-10-01T04:13:48.144Z,15.52
2017-10-01T04:16:15.623Z,31.35
2017-10-01T04:18:43.076Z,13.73
2017-10-01T04:21:10.547Z,13.02
2017-10-01T04:23:38.760Z,17.08
2017-10-01T04:26:06.227Z,20.52
2017-10-01T04:28:33.686Z,16.92
2017-10-01T04:31:01.211Z,18.48
2017-10-01T04:33:28.664Z,16.55
2017-10-01T04:35:56.131Z,18.35
2017-10-01T04:38:23.579Z,13.57
2017-10-01T04:40:51.831Z,18.45
2017-10-01T04:43:19.295Z,15.13
2017-10-01T04:45:46.759Z,18.30
2017-10-01T04:48:14.234Z,14.80
2017-10-01T04:50:41.694Z,13.40
2017-10-01T04:53:09.217Z,14.02
2017-10-01T04:55:36.659Z,13.27
2017-10-01T04:58:04.135Z,19.15
2017-10-01T05:00:31.580Z,13.73
2017-10-01T05:02:59.052Z,18.23
2017-10-01T05:05:27.311Z,15.65
2017-10-01T05:07:54.768Z,20.30
2017-10-01T05:10:22.233Z,19.17
2017-10-01T05:12:49.696Z,16.55
2017-10-01T05:15:17.159Z,13.35
2017-10-01T05:17:44.607Z,15.00
2017-10-01T05:20:12.112Z,15.05
2017-10-01T05:22:39.547Z,15.45
2017-10-01T05:25:07.011Z,19.65
2017-10-01T05:27:34.464Z,17.27
2017-10-01T05:30:02.725Z,17.02
2017-10-01T05:32:30.915Z,15.70
2017-10-01T05:34:58.371Z,15.57
2017-10-01T05:37:26.590Z,12.20
2017-10-01T05:39:54.059Z,13.10
2017-10-01T05:42:21.531Z,11.23
2017-10-01T05:44:49.740Z,15.70
2017-10-01T05:47:17.184Z,12.55
2017-10-01T05:49:45.416Z,16.90
2017-10-01T05:52:12.851Z,12.32
2017-10-01T05:54:40.319Z,13.48
2017-10-01T05:57:08.551Z,14.48
2017-10-01T05:59:35.998Z,13.88
2017-10-01T06:02:03.456Z,13.98
2017-10-01T06:04:31.689Z,10.60
2017-10-01T06:06:59.147Z,17.30
2017-10-01T06:09:26.604Z,11.98
2017-10-01T06:11:54.815Z,14.75
2017-10-01T06:14:23.042Z,13.07
2017-10-01T06:16:50.554Z,11.82
2017-10-01T06:19:18.783Z,14.32
2017-10-01T06:21:47.027Z,13.93
2017-10-01T06:24:14.487Z,12.43
2017-10-01T06:26:41.958Z,14.77
2017-10-01T06:29:09.417Z,13.70
2017-10-01T06:31:36.880Z,14.85
2017-10-01T06:34:04.355Z,19.20
2017-10-01T06:36:31.801Z,14.82
2017-10-01T06:39:00.084Z,16.12
2017-10-01T06:41:28.912Z,15.50
2017-10-01T06:43:57.154Z,16.02
2017-10-01T06:46:24.604Z,13.02
2017-10-01T06:48:52.116Z,16.83
2017-10-01T06:51:19.583Z,12.50
2017-10-01T06:53:47.055Z,15.60
2017-10-01T06:56:14.508Z,13.02
2017-10-01T06:58:41.983Z,14.25
2017-10-01T07:01:10.225Z,14.52
2017-10-01T07:03:38.440Z,13.95
2017-10-01T07:06:06.720Z,12.85
2017-10-01T07:08:34.184Z,14.23
2017-10-01T07:11:02.449Z,15.20
2017-10-01T07:13:29.902Z,18.08
2017-10-01T07:15:57.385Z,18.05
2017-10-01T07:18:24.832Z,19.35
2017-10-01T07:20:56.484Z,20.20
2017-10-01T07:23:23.937Z,25.50
2017-10-01T07:25:51.412Z,24.20
2017-10-01T07:28:20.027Z,24.05
2017-10-01T07:30:48.251Z,28.38
2017-10-01T07:33:15.712Z,25.37
2017-10-01T07:35:43.267Z,26.62
2017-10-01T07:38:11.506Z,24.33
2017-10-01T07:40:39.724Z,25.15
2017-10-01T07:43:07.203Z,29.67
2017-10-01T07:45:34.655Z,24.50
2017-10-01T07:48:02.111Z,29.45
2017-10-01T07:50:29.591Z,24.73
2017-10-01T07:52:57.107Z,30.55
2017-10-01T07:55:24.583Z,28.10
2017-10-01T07:57:52.039Z,26.40
2017-10-01T08:00:19.520Z,27.60
2017-10-01T08:02:46.997Z,26.35
2017-10-01T08:05:14.476Z,27.48
2017-10-01T08:07:41.931Z,27.60
2017-10-01T08:10:09.384Z,25.35
2017-10-01T08:12:36.845Z,24.92
2017-10-01T08:15:04.319Z,28.30
2017-10-01T08:17:32.509Z,25.60
2017-10-01T08:19:59.967Z,26.17
2017-10-01T08:22:27.444Z,24.02
2017-10-01T08:24:55.658Z,29.90
2017-10-01T08:27:23.125Z,29.98
2017-10-01T08:29:50.580Z,26.37
2017-10-01T08:32:18.820Z,26.30
2017-10-01T08:34:46.282Z,27.50
2017-10-01T08:37:13.747Z,27.50
2017-10-01T08:39:41.191Z,27.25
2017-10-01T08:42:09.430Z,25.98
2017-10-01T08:44:36.905Z,26.52
2017-10-01T08:47:04.384Z,26.00
2017-10-01T08:49:31.879Z,26.65
2017-10-01T08:51:59.379Z,22.60
2017-10-01T08:54:27.617Z,22.10
2017-10-01T08:56:55.098Z,26.73
2017-10-01T08:59:23.710Z,21.83
2017-10-01T09:01:51.168Z,21.17
2017-10-01T09:04:19.401Z,19.77
2017-10-01T09:06:46.948Z,22.03
2017-10-01T09:09:14.408Z,19.70
2017-10-01T09:11:41.876Z,22.73
2017-10-01T09:14:09.351Z,21.27
2017-10-01T09:16:36.872Z,21.33
2017-10-01T09:19:04.369Z,15.63
2017-10-01T09:21:32.591Z,15.27
2017-10-01T09:24:00.060Z,14.20
2017-10-01T09:26:27.510Z,12.60
2017-10-01T09:28:54.970Z,11.27
2017-10-01T09:31:22.411Z,11.60
2017-10-01T09:33:49.895Z,12.90
2017-10-01T09:36:17.358Z,10.07
2017-10-01T09:38:44.835Z,12.83
2017-10-01T09:41:12.299Z,14.03
2017-10-01T09:43:39.775Z,11.33
2017-10-01T09:46:08.019Z,8.60
2017-10-01T09:48:35.464Z,7.63
2017-10-01T09:51:02.902Z,8.00
2017-10-01T09:53:31.144Z,8.93
2017-10-01T09:55:59.377Z,8.80
2017-10-01T09:58:27.588Z,6.70
2017-10-01T10:00:55.069Z,7.07
2017-10-01T10:03:23.032Z,7.17
2017-10-01T10:05:51.263Z,9.17
2017-10-01T10:08:18.728Z,9.17
2017-10-01T10:10:46.201Z,6.87
2017-10-01T10:13:13.644Z,7.57
2017-10-01T10:15:41.869Z,6.77
2017-10-01T10:18:09.444Z,6.67
2017-10-01T10:20:36.935Z,6.83
2017-10-01T10:23:04.373Z,7.50
2017-10-01T10:25:31.846Z,6.50
2017-10-01T10:28:00.092Z,6.30
2017-10-01T10:30:27.536Z,7.80
2017-10-01T10:32:55.064Z,5.77
2017-10-01T10:35:22.512Z,5.40
2017-10-01T10:37:49.975Z,6.50
2017-10-01T10:40:17.419Z,5.67
2017-10-01T10:42:44.888Z,8.30
2017-10-01T10:45:12.421Z,5.03
2017-10-01T10:47:39.898Z,4.30
2017-10-01T10:50:07.357Z,6.00
2017-10-01T10:52:34.828Z,5.90
2017-10-01T10:55:02.312Z,6.53
2017-10-01T10:57:30.700Z,5.07
2017-10-01T10:59:58.169Z,6.13
2017-10-01T11:02:25.604Z,5.30
2017-10-01T11:04:53.832Z,5.80
2017-10-01T11:07:21.327Z,9.20
2017-10-01T11:09:48.768Z,8.17
2017-10-01T11:12:16.231Z,6.77
2017-10-01T11:14:44.495Z,6.97
2017-10-01T11:17:11.941Z,7.00
2017-10-01T11:19:39.396Z,7.23
2017-10-01T11:22:06.875Z,5.53
2017-10-01T11:24:34.345Z,6.90
2017-10-01T11:27:01.798Z,6.63
2017-10-01T11:29:29.240Z,7.20
2017-10-01T11:31:56.716Z,10.80
2017-10-01T11:34:24.157Z,8.57
2017-10-01T11:36:51.623Z,8.70
2017-10-01T11:39:19.079Z,4.87
2017-10-01T11:41:46.537Z,3.53
2017-10-01T11:44:14.745Z,4.10
2017-10-01T11:46:42.202Z,5.20
2017-10-01T11:49:09.647Z,3.87
2017-10-01T11:51:37.103Z,5.10
2017-10-01T11:54:04.552Z,3.90
2017-10-01T11:56:32.013Z,4.00
2017-10-01T11:59:00.246Z,6.30
2017-10-01T12:01:27.696Z,7.30
2017-10-01T12:03:55.166Z,4.17
2017-10-01T12:06:22.637Z,5.30
2017-10-01T12:08:50.088Z,7.37
2017-10-01T12:11:18.302Z,4.63
2017-10-01T12:13:45.760Z,6.40
2017-10-01T12:16:14.004Z,5.93
2017-10-01T12:18:41.462Z,4.30
2017-10-01T12:21:08.936Z,9.93
2017-10-01T12:23:36.407Z,4.60
2017-10-01T12:26:03.902Z,5.63
2017-10-01T12:28:31.392Z,4.90
2017-10-01T12:30:58.844Z,3.80
2017-10-01T12:33:26.308Z,5.13
2017-10-01T12:35:53.748Z,3.40
2017-10-01T12:38:22.016Z,6.80
2017-10-01T12:40:49.453Z,4.33
2017-10-01T12:43:17.009Z,3.87
2017-10-01T12:45:45.222Z,4.53
2017-10-01T12:48:12.691Z,4.10
2017-10-01T12:50:40.164Z,4.43
2017-10-01T12:53:07.607Z,3.73
2017-10-01T12:55:35.855Z,5.20
2017-10-01T12:58:09.546Z,3.50
2017-10-01T13:00:37.792Z,4.90
2017-10-01T13:03:05.239Z,4.03
2017-10-01T13:05:32.672Z,3.60
2017-10-01T13:08:00.908Z,9.33
2017-10-01T13:10:28.384Z,4.53
2017-10-01T13:12:55.846Z,5.60
2017-10-01T13:15:23.279Z,4.97
2017-10-01T13:17:51.539Z,3.43
2017-10-01T13:20:18.984Z,4.10
2017-10-01T13:22:46.456Z,4.57
2017-10-01T13:25:13.913Z,4.43
2017-10-01T13:27:41.432Z,4.10
2017-10-01T13:30:08.900Z,3.80
2017-10-01T13:32:36.364Z,6.33
2017-10-01T13:35:03.828Z,5.13
2017-10-01T13:37:31.261Z,4.83
2017-10-01T13:39:59.480Z,4.93
2017-10-01T13:42:26.961Z,6.03
2017-10-01T13:44:54.412Z,4.40
2017-10-01T13:47:22.652Z,4.43
2017-10-01T13:49:50.084Z,5.50
2017-10-01T13:52:18.328Z,7.00
2017-10-01T13:54:45.803Z,6.17
2017-10-01T13:57:13.269Z,5.03
2017-10-01T13:59:40.730Z,3.63
2017-10-01T14:02:13.044Z,5.43
2017-10-01T14:04:40.508Z,5.20
2017-10-01T14:07:07.973Z,4.87
2017-10-01T14:09:35.440Z,5.33
2017-10-01T14:12:02.920Z,5.57
2017-10-01T14:14:31.084Z,4.10
2017-10-01T14:16:58.545Z,4.30
2017-10-01T14:19:26.828Z,7.60
2017-10-01T14:21:54.288Z,5.97
2017-10-01T14:24:21.732Z,3.57
2017-10-01T14:26:49.182Z,7.30
2017-10-01T14:29:16.655Z,7.80
2017-10-01T14:31:44.135Z,7.70
2017-10-01T14:34:12.340Z,3.40
2017-10-01T14:36:39.794Z,4.37
2017-10-01T14:39:07.228Z,3.23
2017-10-01T14:41:34.694Z,3.80
2017-10-01T14:44:02.824Z,5.40
2017-10-01T14:46:31.044Z,3.80
2017-10-01T14:48:58.488Z,5.50
2017-10-01T14:51:26.715Z,3.50
2017-10-01T14:53:55.020Z,3.57
2017-10-01T14:56:22.463Z,8.07
2017-10-01T14:58:49.922Z,3.60
2017-10-01T15:01:18.115Z,4.50
2017-10-01T15:03:46.356Z,6.57
2017-10-01T15:06:13.799Z,4.40
2017-10-01T15:08:41.250Z,5.37
2017-10-01T15:11:09.472Z,5.00
2017-10-01T15:13:36.948Z,6.23
2017-10-01T15:16:04.419Z,5.70
2017-10-01T15:18:31.896Z,4.67
2017-10-01T15:20:59.387Z,5.30
2017-10-01T15:23:26.829Z,4.20
2017-10-01T15:25:54.313Z,5.70
2017-10-01T15:28:21.744Z,5.47
2017-10-01T15:30:50.769Z,8.03
2017-10-01T15:33:18.996Z,6.30
2017-10-01T15:35:46.442Z,5.10
2017-10-01T15:38:13.899Z,6.93
2017-10-01T15:40:41.468Z,5.67
2017-10-01T15:43:08.926Z,4.73
2017-10-01T15:45:36.364Z,4.33
2017-10-01T15:48:03.845Z,5.50
2017-10-01T15:50:31.320Z,5.93
2017-10-01T15:52:58.850Z,7.93
2017-10-01T15:55:26.314Z,5.50
2017-10-01T15:57:53.805Z,6.30
2017-10-01T16:00:21.252Z,5.00
2017-10-01T16:02:48.739Z,5.73
2017-10-01T16:05:16.203Z,6.90
2017-10-01T16:07:43.652Z,5.30
2017-10-01T16:10:11.120Z,8.60
2017-10-01T16:12:38.565Z,7.77
2017-10-01T16:15:06.037Z,5.67
2017-10-01T16:17:33.472Z,7.70
2017-10-01T16:20:00.988Z,5.10
2017-10-01T16:22:28.407Z,6.70
2017-10-01T16:24:55.915Z,8.07
2017-10-01T16:27:26.901Z,8.57
2017-10-01T16:29:54.382Z,8.83
2017-10-01T16:32:22.606Z,6.83
2017-10-01T16:34:50.055Z,6.50
2017-10-01T16:37:17.641Z,7.90
2017-10-01T16:39:45.128Z,8.10
2017-10-01T16:42:12.582Z,6.00
2017-10-01T16:44:40.059Z,7.00
2017-10-01T16:47:07.561Z,6.23
2017-10-01T16:49:35.001Z,6.53
2017-10-01T16:52:03.265Z,6.80
2017-10-01T16:54:30.722Z,7.07
2017-10-01T16:56:58.265Z,5.83
2017-10-01T16:59:25.703Z,5.20
2017-10-01T17:01:53.147Z,9.40
2017-10-01T17:04:20.635Z,7.43
2017-10-01T17:06:48.073Z,7.37
2017-10-01T17:09:15.540Z,10.07
2017-10-01T17:11:43.117Z,6.90
2017-10-01T17:14:10.583Z,5.93
2017-10-01T17:16:38.072Z,7.37
2017-10-01T17:19:05.608Z,7.27
2017-10-01T17:21:33.923Z,7.53
2017-10-01T17:24:02.156Z,7.23
2017-10-01T17:26:29.604Z,11.03
2017-10-01T17:28:57.055Z,6.50
2017-10-01T17:31:25.352Z,7.90
2017-10-01T17:33:52.795Z,8.80
2017-10-01T17:36:20.247Z,7.73
2017-10-01T17:38:48.422Z,7.80
2017-10-01T17:41:15.962Z,10.80
2017-10-01T17:43:44.903Z,9.60
2017-10-01T17:46:12.386Z,13.43
2017-10-01T17:48:39.847Z,8.80
2017-10-01T17:51:07.295Z,7.50
2017-10-01T17:53:34.760Z,9.40
2017-10-01T17:56:02.310Z,8.83
2017-10-01T17:58:29.817Z,7.97
2017-10-01T18:00:57.432Z,7.77
2017-10-01T18:03:24.912Z,10.23
2017-10-01T18:05:52.475Z,11.77
2017-10-01T18:08:20.015Z,9.77
2017-10-01T18:10:49.620Z,8.60
2017-10-01T18:13:17.137Z,9.90
2017-10-01T18:15:44.667Z,9.10
2017-10-01T18:18:12.220Z,8.00
2017-10-01T18:20:39.823Z,8.63
2017-10-01T18:23:07.342Z,7.80
2017-10-01T18:25:36.508Z,9.63
2017-10-01T18:28:04.026Z,7.67
2017-10-01T18:30:31.996Z,9.07
2017-10-01T18:32:59.556Z,10.33
2017-10-01T18:35:27.130Z,11.20
2017-10-01T18:37:58.618Z,15.57
2017-10-01T18:40:26.201Z,9.60
2017-10-01T18:42:58.370Z,9.70
2017-10-01T18:45:25.840Z,16.33
2017-10-01T18:47:53.364Z,12.30
2017-10-01T18:50:21.703Z,13.30
2017-10-01T18:52:49.209Z,11.43
2017-10-01T18:55:16.756Z,13.53
2017-10-01T18:57:44.204Z,10.70
2017-10-01T19:00:11.696Z,10.73
2017-10-01T19:02:39.144Z,11.77
2017-10-01T19:05:06.624Z,12.40
2017-10-01T19:07:34.856Z,13.60
2017-10-01T19:10:02.322Z,12.93
2017-10-01T19:12:29.828Z,11.10
2017-10-01T19:14:57.273Z,10.77
2017-10-01T19:17:25.391Z,15.00
2017-10-01T19:19:52.839Z,12.43
2017-10-01T19:22:20.305Z,11.33
2017-10-01T19:24:47.787Z,10.80
2017-10-01T19:27:15.297Z,13.13
2017-10-01T19:29:42.792Z,11.47
2017-10-01T19:32:10.231Z,12.10
2017-10-01T19:34:37.687Z,12.07
2017-10-01T19:37:05.298Z,12.80
2017-10-01T19:39:32.752Z,12.57
2017-10-01T19:42:00.234Z,10.03
2017-10-01T19:44:27.778Z,13.03
2017-10-01T19:46:55.438Z,13.17
2017-10-01T19:49:23.676Z,10.93
2017-10-01T19:51:51.127Z,20.40
2017-10-01T19:54:18.560Z,13.63
2017-10-01T19:56:46.808Z,14.00
2017-10-01T19:59:14.297Z,12.63
2017-10-01T20:01:41.775Z,13.10
2017-10-01T20:04:09.237Z,13.63
2017-10-01T20:06:36.696Z,16.10
2017-10-01T20:09:04.202Z,12.80
2017-10-01T20:11:31.714Z,16.50
2017-10-01T20:13:59.934Z,12.57
2017-10-01T20:16:27.456Z,18.27
2017-10-01T20:18:54.927Z,11.03
2017-10-01T20:21:22.402Z,10.43
2017-10-01T20:23:49.857Z,11.00
2017-10-01T20:26:18.114Z,11.57
2017-10-01T20:28:49.434Z,11.80
2017-10-01T20:31:17.598Z,12.67
2017-10-01T20:33:50.069Z,15.33
2017-10-01T20:36:18.527Z,12.23
2017-10-01T20:38:47.789Z,10.87
2017-10-01T20:41:16.382Z,11.77
2017-10-01T20:43:43.865Z,11.90
2017-10-01T20:46:11.965Z,12.00
2017-10-01T20:48:40.449Z,13.50
2017-10-01T20:51:07.969Z,12.60
2017-10-01T20:53:36.152Z,10.30
2017-10-01T20:56:03.628Z,12.73
2017-10-01T20:58:31.287Z,16.00
2017-10-01T21:00:58.855Z,13.33
2017-10-01T21:03:26.414Z,11.23
2017-10-01T21:05:53.848Z,10.60
2017-10-01T21:08:21.417Z,11.03
2017-10-01T21:10:50.090Z,11.60
2017-10-01T21:13:17.620Z,12.60
2017-10-01T21:15:45.885Z,11.97
2017-10-01T21:18:13.372Z,12.77
2017-10-01T21:20:41.019Z,11.77
2017-10-01T21:23:08.520Z,12.50
2017-10-01T21:25:36.065Z,10.43
2017-10-01T21:28:03.675Z,11.93
2017-10-01T21:30:31.181Z,11.30
2017-10-01T21:32:59.409Z,10.70
2017-10-01T21:35:26.856Z,10.83
2017-10-01T21:37:54.307Z,11.50
2017-10-01T21:40:22.524Z,11.30
2017-10-01T21:42:50.739Z,10.90
2017-10-01T21:45:18.215Z,11.60
2017-10-01T21:47:45.651Z,9.73
2017-10-01T21:50:13.123Z,11.77
2017-10-01T21:52:41.387Z,10.57
2017-10-01T21:55:08.856Z,12.23
2017-10-01T21:57:36.310Z,9.60
2017-10-01T22:00:07.743Z,10.70
2017-10-01T22:02:35.943Z,9.77
2017-10-01T22:05:03.464Z,10.73
2017-10-01T22:07:30.924Z,12.00
2017-10-01T22:09:58.373Z,9.13
2017-10-01T22:12:26.684Z,12.50
2017-10-01T22:14:54.210Z,10.50
2017-10-01T22:17:22.470Z,11.50
2017-10-01T22:19:50.120Z,9.67
2017-10-01T22:22:17.532Z,9.03
2017-10-01T22:24:44.992Z,9.53
2017-10-01T22:27:12.436Z,8.10
2017-10-01T22:29:39.888Z,10.00
2017-10-01T22:32:08.096Z,9.57
2017-10-01T22:34:35.589Z,10.77
2017-10-01T22:37:03.035Z,9.23
2017-10-01T22:39:31.238Z,11.60
2017-10-01T22:41:58.709Z,8.10
2017-10-01T22:44:26.162Z,9.00
2017-10-01T22:46:54.385Z,12.17
2017-10-01T22:49:21.852Z,8.50
2017-10-01T22:51:49.434Z,13.10
2017-10-01T22:54:16.907Z,8.30
2017-10-01T22:56:44.363Z,8.03
2017-10-01T22:59:12.592Z,9.70
2017-10-01T23:01:40.068Z,8.57
2017-10-01T23:04:07.495Z,12.50
2017-10-01T23:06:35.729Z,11.17
2017-10-01T23:09:03.189Z,12.60
2017-10-01T23:11:30.665Z,9.43
2017-10-01T23:13:58.104Z,8.83
2017-10-01T23:16:26.033Z,7.87
2017-10-01T23:18:53.480Z,13.43
2017-10-01T23:21:21.699Z,11.90
2017-10-01T23:23:49.178Z,9.70
2017-10-01T23:26:16.619Z,8.67
2017-10-01T23:28:44.092Z,8.00
2017-10-01T23:31:12.310Z,9.20
2017-10-01T23:33:39.890Z,9.47
2017-10-01T23:36:09.036Z,8.47
2017-10-01T23:38:36.509Z,8.63
2017-10-01T23:41:03.962Z,9.90
2017-10-01T23:43:31.395Z,8.30
2017-10-01T23:45:58.855Z,8.07
2017-10-01T23:48:26.312Z,10.73
2017-10-01T23:50:53.776Z,8.03
2017-10-01T23:53:21.212Z,8.73
2017-10-01T23:55:48.679Z,7.67
2017-10-01T23:58:16.924Z,12.93
